createdAt,value
2019-02-27T00:01:39.015Z,43.13
2019-02-27T00:06:50.379Z,39.83
2019-02-27T00:12:02.140Z,34.50
2019-02-27T00:17:15.091Z,32.50
2019-02-27T00:22:26.810Z,35.80
2019-02-27T00:27:38.839Z,38.73
2019-02-27T00:32:51.327Z,38.60
2019-02-27T00:38:03.963Z,39.73
2019-02-27T00:43:15.882Z,31.83
2019-02-27T00:48:27.384Z,36.17
2019-02-27T00:53:39.212Z,36.20
2019-02-27T00:58:51.051Z,32.63
2019-02-27T01:04:03.175Z,40.83
2019-02-27T01:09:14.891Z,41.47
2019-02-27T01:14:29.323Z,38.77
2019-02-27T01:19:42.697Z,37.13
2019-02-27T01:24:54.015Z,36.73
2019-02-27T01:30:05.503Z,37.57
2019-02-27T01:35:18.875Z,36.27
2019-02-27T01:40:31.031Z,43.30
2019-02-27T01:45:42.509Z,38.77
2019-02-27T01:50:55.196Z,37.23
2019-02-27T01:56:07.533Z,33.97
2019-02-27T02:01:19.238Z,34.43
2019-02-27T02:06:32.470Z,32.70
2019-02-27T02:11:44.490Z,34.87
2019-02-27T02:16:56.455Z,36.53
2019-02-27T02:22:09.112Z,36.47
2019-02-27T02:27:20.871Z,35.47
2019-02-27T02:32:32.857Z,34.63
2019-02-27T02:37:44.444Z,38.27
2019-02-27T02:42:59.180Z,31.47
2019-02-27T02:48:09.558Z,34.57
2019-02-27T02:53:24.831Z,35.93
2019-02-27T02:58:34.159Z,34.80
2019-02-27T03:03:46.468Z,34.93
2019-02-27T03:08:58.672Z,34.67
2019-02-27T03:14:13.799Z,31.90
2019-02-27T03:19:23.671Z,37.07
2019-02-27T03:24:35.799Z,39.67
2019-02-27T03:29:52.010Z,40.23
2019-02-27T03:35:00.936Z,33.87
2019-02-27T03:40:13.071Z,33.70
2019-02-27T03:45:30.662Z,34.80
2019-02-27T03:50:37.717Z,37.20
2019-02-27T03:55:49.150Z,35.90
2019-02-27T04:01:00.958Z,36.30
2019-02-27T04:06:12.479Z,36.70
2019-02-27T04:11:24.298Z,38.03
2019-02-27T04:16:38.166Z,34.13
2019-02-27T04:21:49.925Z,31.67
2019-02-27T04:27:01.195Z,29.90
2019-02-27T04:32:13.250Z,37.23
2019-02-27T04:37:25.495Z,37.93
2019-02-27T04:42:37.458Z,35.33
2019-02-27T04:47:48.943Z,36.70
2019-02-27T04:53:00.542Z,36.80
2019-02-27T04:58:12.382Z,35.73
2019-02-27T05:03:25.825Z,38.37
2019-02-27T05:08:36.699Z,43.77
2019-02-27T05:13:48.673Z,38.43
2019-02-27T05:19:03.587Z,34.20
2019-02-27T05:24:13.692Z,34.13
2019-02-27T05:29:25.874Z,44.83
2019-02-27T05:34:37.239Z,36.47
2019-02-27T05:39:51.109Z,40.97
2019-02-27T05:45:02.359Z,38.30
2019-02-27T05:50:13.744Z,38.17
2019-02-27T05:55:25.558Z,38.47
2019-02-27T06:00:37.362Z,40.37
2019-02-27T06:05:49.920Z,50.00
2019-02-27T06:11:01.535Z,39.37
2019-02-27T06:16:13.551Z,39.57
2019-02-27T06:21:24.943Z,37.60
2019-02-27T06:26:36.892Z,45.00
2019-02-27T06:31:49.087Z,42.87
2019-02-27T06:37:01.283Z,40.03
2019-02-27T06:42:13.524Z,73.43
2019-02-27T06:47:25.323Z,41.57
2019-02-27T06:52:37.456Z,55.90
2019-02-27T06:57:49.460Z,36.07
2019-02-27T07:03:01.355Z,35.50
2019-02-27T07:08:13.422Z,41.70
2019-02-27T07:13:26.767Z,43.70
2019-02-27T07:18:41.426Z,46.93
2019-02-27T07:23:51.569Z,47.07
2019-02-27T07:29:03.811Z,40.00
2019-02-27T07:34:15.439Z,34.20
2019-02-27T07:39:27.423Z,35.37
2019-02-27T07:44:39.376Z,28.67
2019-02-27T07:49:50.641Z,25.70
2019-02-27T07:55:02.335Z,33.97
2019-02-27T08:00:15.171Z,22.00
2019-02-27T08:05:29.015Z,27.43
2019-02-27T08:10:40.859Z,27.80
2019-02-27T08:15:53.399Z,35.40
2019-02-27T08:21:05.443Z,31.73
2019-02-27T08:26:18.484Z,30.20
2019-02-27T08:31:32.056Z,36.50
2019-02-27T08:36:44.238Z,33.37
2019-02-27T08:41:56.047Z,32.03
2019-02-27T08:47:10.202Z,26.33
2019-02-27T08:52:21.036Z,36.83
2019-02-27T08:57:32.853Z,34.13
2019-02-27T09:02:44.255Z,33.07
2019-02-27T09:07:56.395Z,36.10
2019-02-27T09:13:08.095Z,35.13
2019-02-27T09:18:19.978Z,32.23
2019-02-27T09:23:31.680Z,28.83
2019-02-27T09:28:44.479Z,37.23
2019-02-27T09:33:57.355Z,30.03
2019-02-27T09:39:09.040Z,31.17
2019-02-27T09:44:21.176Z,34.90
2019-02-27T09:49:33.141Z,29.27
2019-02-27T09:54:46.962Z,27.30
2019-02-27T09:59:58.982Z,27.30
2019-02-27T10:05:12.425Z,24.27
2019-02-27T10:10:24.007Z,18.63
2019-02-27T10:15:35.602Z,18.17
2019-02-27T10:20:47.852Z,24.43
2019-02-27T10:25:59.587Z,17.03
2019-02-27T10:31:12.702Z,23.90
2019-02-27T10:36:24.175Z,21.97
2019-02-27T10:41:36.855Z,17.50
2019-02-27T10:46:48.738Z,15.70
2019-02-27T10:52:00.898Z,18.27
2019-02-27T10:57:12.994Z,17.00
2019-02-27T11:02:25.103Z,18.40
2019-02-27T11:07:37.388Z,16.73
2019-02-27T11:12:49.026Z,15.17
2019-02-27T11:18:04.229Z,17.90
2019-02-27T11:23:14.093Z,14.73
2019-02-27T11:28:25.354Z,13.03
2019-02-27T11:33:36.598Z,16.33
2019-02-27T11:38:47.855Z,16.03
2019-02-27T11:44:00.009Z,15.67
2019-02-27T11:49:12.063Z,14.60
2019-02-27T11:54:24.134Z,13.70
2019-02-27T11:59:35.923Z,17.67
2019-02-27T12:04:47.944Z,14.20
2019-02-27T12:10:01.020Z,12.80
2019-02-27T12:15:13.466Z,7.20
2019-02-27T12:20:25.219Z,9.93
2019-02-27T12:25:37.067Z,10.87
2019-02-27T12:30:48.362Z,11.00
2019-02-27T12:35:48.107Z,8.27
2019-02-27T12:41:00.456Z,10.87
2019-02-27T12:46:12.140Z,7.23
2019-02-27T12:51:23.495Z,8.20
2019-02-27T12:56:34.967Z,9.10
2019-02-27T13:01:50.777Z,6.17
2019-02-27T13:06:59.959Z,7.70
2019-02-27T13:12:12.087Z,9.33
2019-02-27T13:17:23.235Z,12.40
2019-02-27T13:22:34.803Z,7.70
2019-02-27T13:27:46.117Z,8.33
2019-02-27T13:33:00.693Z,10.13
2019-02-27T13:38:11.386Z,9.80
2019-02-27T13:43:24.435Z,11.00
2019-02-27T13:48:37.408Z,13.00
2019-02-27T13:53:48.892Z,10.07
2019-02-27T13:59:00.868Z,8.70
2019-02-27T14:04:12.755Z,11.37
2019-02-27T14:09:24.751Z,12.93
2019-02-27T14:14:36.048Z,13.37
2019-02-27T14:19:48.031Z,10.33
2019-02-27T14:25:02.473Z,13.20
2019-02-27T14:30:14.582Z,10.40
2019-02-27T14:35:26.614Z,7.77
2019-02-27T14:40:41.104Z,8.90
2019-02-27T14:45:51.764Z,7.60
2019-02-27T14:51:07.412Z,8.87
2019-02-27T14:56:16.951Z,7.30
2019-02-27T15:01:29.362Z,7.10
2019-02-27T15:06:41.195Z,6.63
2019-02-27T15:11:53.147Z,8.27
2019-02-27T15:17:04.401Z,8.40
2019-02-27T15:22:20.245Z,12.70
2019-02-27T15:27:29.268Z,8.20
2019-02-27T15:32:29.440Z,8.50
2019-02-27T15:37:55.511Z,7.10
2019-02-27T15:43:11.249Z,5.43
2019-02-27T15:48:21.509Z,5.53
2019-02-27T15:53:32.937Z,7.60
2019-02-27T15:58:44.758Z,6.33
2019-02-27T16:03:56.984Z,6.57
2019-02-27T16:09:08.452Z,5.57
2019-02-27T16:14:21.436Z,5.73
2019-02-27T16:19:32.955Z,5.67
2019-02-27T16:24:44.751Z,6.97
2019-02-27T16:29:57.426Z,5.13
2019-02-27T16:35:09.511Z,6.90
2019-02-27T16:40:21.451Z,6.00
2019-02-27T16:45:36.670Z,7.87
2019-02-27T16:50:48.275Z,9.60
2019-02-27T16:56:00.535Z,5.40
2019-02-27T17:01:12.672Z,5.93
2019-02-27T17:06:24.716Z,4.80
2019-02-27T17:11:36.347Z,8.73
2019-02-27T17:16:48.314Z,9.87
2019-02-27T17:22:00.142Z,5.70
2019-02-27T17:27:12.980Z,4.17
2019-02-27T17:32:27.494Z,5.93
2019-02-27T17:37:39.943Z,3.90
2019-02-27T17:42:53.485Z,4.53
2019-02-27T17:48:06.159Z,9.17
2019-02-27T17:53:20.445Z,4.00
2019-02-27T17:58:34.898Z,6.13
2019-02-27T18:03:45.298Z,6.03
2019-02-27T18:08:57.183Z,10.47
2019-02-27T18:13:56.923Z,7.00
2019-02-27T18:19:08.358Z,8.40
2019-02-27T18:24:20.405Z,6.47
2019-02-27T18:29:32.175Z,8.07
2019-02-27T18:34:44.403Z,10.53
2019-02-27T18:42:32.906Z,14.00
2019-02-27T18:47:35.268Z,12.10
2019-02-27T18:52:33.935Z,17.40
2019-02-27T18:57:33.988Z,13.57
2019-02-27T19:02:33.649Z,9.87
2019-02-27T19:07:33.398Z,12.20
2019-02-27T19:12:33.130Z,13.77
2019-02-27T19:17:34.532Z,12.63
2019-02-27T19:22:35.068Z,17.93
2019-02-27T19:27:34.780Z,17.07
2019-02-27T19:32:34.937Z,10.90
2019-02-27T19:37:36.359Z,15.40
2019-02-27T19:42:36.760Z,15.53
2019-02-27T19:47:36.423Z,19.60
2019-02-27T19:52:36.147Z,20.80
2019-02-27T19:57:35.959Z,21.43
2019-02-27T20:02:35.627Z,19.00
2019-02-27T20:07:35.800Z,23.10
2019-02-27T20:12:36.342Z,20.93
2019-02-27T20:17:36.420Z,25.13
2019-02-27T20:22:36.459Z,16.33
2019-02-27T20:27:36.090Z,23.23
2019-02-27T20:32:36.493Z,24.20
2019-02-27T20:37:37.165Z,21.90
2019-02-27T20:42:37.645Z,23.10
2019-02-27T20:47:37.295Z,21.23
2019-02-27T20:52:36.963Z,20.87
2019-02-27T20:57:39.510Z,21.20
2019-02-27T21:02:38.076Z,21.33
2019-02-27T21:07:37.723Z,22.50
2019-02-27T21:12:40.831Z,23.00
2019-02-27T21:17:38.906Z,19.70
2019-02-27T21:22:38.637Z,19.10
2019-02-27T21:27:38.462Z,18.53
2019-02-27T21:32:38.462Z,14.80
2019-02-27T21:37:41.273Z,17.93
2019-02-27T21:42:40.766Z,19.50
2019-02-27T21:47:40.586Z,22.57
2019-02-27T21:52:40.275Z,17.27
2019-02-27T21:57:40.304Z,18.60
2019-02-27T22:02:40.144Z,16.10
2019-02-27T22:07:39.791Z,15.00
2019-02-27T22:12:39.742Z,19.27
2019-02-27T22:17:39.423Z,16.80
2019-02-27T22:22:41.490Z,16.43
2019-02-27T22:27:43.219Z,19.80
2019-02-27T22:32:41.919Z,17.63
2019-02-27T22:37:41.835Z,19.90
2019-02-27T22:42:41.638Z,15.87
2019-02-27T22:47:41.409Z,17.10
2019-02-27T22:52:42.410Z,16.50
2019-02-27T22:57:42.178Z,36.37
2019-02-27T23:02:41.902Z,16.63
2019-02-27T23:07:41.710Z,19.40
2019-02-27T23:12:41.631Z,17.73
2019-02-27T23:17:41.312Z,16.30
2019-02-27T23:22:41.965Z,18.67
2019-02-27T23:27:41.850Z,22.87
2019-02-27T23:32:41.618Z,19.00
2019-02-27T23:37:41.347Z,26.90
2019-02-27T23:42:40.967Z,25.17
2019-02-27T23:47:40.638Z,22.17
2019-02-27T23:52:40.331Z,22.57
2019-02-27T23:57:40.391Z,27.73
